createdAt,value
2023-03-12T00:01:33.999Z,-3.87
2023-03-12T00:04:05.557Z,-3.83
2023-03-12T00:06:34.631Z,-3.83
2023-03-12T00:09:03.973Z,-3.79
2023-03-12T00:11:33.552Z,-3.81
2023-03-12T00:14:04.665Z,-3.81
2023-03-12T00:16:34.706Z,-3.85
2023-03-12T00:19:04.373Z,-3.89
2023-03-12T00:21:32.715Z,-3.92
2023-03-12T00:24:00.937Z,-3.97
2023-03-12T00:26:40.210Z,-4.00
2023-03-12T00:29:08.332Z,-4.05
2023-03-12T00:31:40.196Z,-4.10
2023-03-12T00:34:11.251Z,-4.15
2023-03-12T00:36:40.780Z,-4.18
2023-03-12T00:39:10.262Z,-4.23
2023-03-12T00:41:38.556Z,-4.27
2023-03-12T00:44:10.384Z,-4.30
2023-03-12T00:46:40.913Z,-4.33
2023-03-12T00:49:11.765Z,-4.35
2023-03-12T00:51:39.856Z,-4.35
2023-03-12T00:54:10.533Z,-4.33
2023-03-12T00:56:38.865Z,-4.35
2023-03-12T00:59:06.993Z,-4.35
2023-03-12T01:01:35.298Z,-4.37
2023-03-12T01:04:11.809Z,-4.41
2023-03-12T01:06:41.952Z,-4.47
2023-03-12T01:09:11.008Z,-4.54
2023-03-12T01:11:40.072Z,-4.59
2023-03-12T01:14:12.104Z,-4.67
2023-03-12T01:16:40.342Z,-4.73
2023-03-12T01:19:08.424Z,-4.77
2023-03-12T01:21:36.547Z,-4.84
2023-03-12T01:24:09.780Z,-4.89
2023-03-12T01:26:37.894Z,-4.93
2023-03-12T01:29:06.042Z,-4.99
2023-03-12T01:31:34.263Z,-5.04
2023-03-12T01:34:03.034Z,-5.08
2023-03-12T01:36:32.239Z,-5.11
2023-03-12T01:39:01.289Z,-5.11
2023-03-12T01:41:33.319Z,-5.13
2023-03-12T01:44:04.065Z,-5.15
2023-03-12T01:46:34.403Z,-5.15
2023-03-12T01:49:08.357Z,-5.15
2023-03-12T01:51:42.914Z,-5.14
2023-03-12T01:54:16.192Z,-5.12
2023-03-12T01:56:47.862Z,-5.11
2023-03-12T01:59:21.460Z,-5.10
2023-03-12T02:01:55.763Z,-5.08
2023-03-12T02:04:27.629Z,-5.06
2023-03-12T02:07:03.334Z,-5.03
2023-03-12T02:09:33.570Z,-5.00
2023-03-12T02:12:09.513Z,-4.98
2023-03-12T02:14:38.184Z,-4.95
2023-03-12T02:17:07.107Z,-4.96
2023-03-12T02:19:44.355Z,-4.93
2023-03-12T02:22:13.452Z,-4.94
2023-03-12T02:24:47.545Z,-4.98
2023-03-12T02:27:19.805Z,-4.99
2023-03-12T02:29:48.524Z,-4.99
2023-03-12T02:32:22.142Z,-5.00
2023-03-12T02:34:50.825Z,-5.00
2023-03-12T02:37:19.906Z,-5.02
2023-03-12T02:39:55.234Z,-5.03
2023-03-12T02:42:33.966Z,-5.03
2023-03-12T02:45:02.899Z,-5.00
2023-03-12T02:47:31.457Z,-4.99
2023-03-12T02:49:59.626Z,-4.97
2023-03-12T02:52:38.079Z,-4.94
2023-03-12T02:55:07.081Z,-4.94
2023-03-12T02:57:37.835Z,-4.93
2023-03-12T03:00:07.728Z,-4.92
2023-03-12T03:02:35.884Z,-4.91
2023-03-12T03:05:04.185Z,-4.93
2023-03-12T03:07:36.005Z,-4.92
2023-03-12T03:10:05.370Z,-4.91
2023-03-12T03:12:39.404Z,-4.88
2023-03-12T03:15:08.914Z,-4.84
2023-03-12T03:17:37.447Z,-4.81
2023-03-12T03:20:08.545Z,-4.77
2023-03-12T03:22:36.663Z,-4.74
2023-03-12T03:25:06.498Z,-4.70
2023-03-12T03:27:36.133Z,-4.68
2023-03-12T03:30:05.898Z,-4.65
2023-03-12T03:32:36.944Z,-4.61
2023-03-12T03:35:05.344Z,-4.60
2023-03-12T03:37:33.440Z,-4.61
2023-03-12T03:40:01.748Z,-4.58
2023-03-12T03:42:30.156Z,-4.61
2023-03-12T03:45:00.506Z,-4.57
2023-03-12T03:47:28.617Z,-4.56
2023-03-12T03:49:57.087Z,-4.56
2023-03-12T03:52:25.262Z,-4.56
2023-03-12T03:54:54.130Z,-4.52
2023-03-12T03:57:22.208Z,-4.50
2023-03-12T03:59:54.497Z,-4.49
2023-03-12T04:02:24.387Z,-4.47
2023-03-12T04:04:52.841Z,-4.46
2023-03-12T04:07:21.392Z,-4.42
2023-03-12T04:09:52.066Z,-4.41
2023-03-12T04:12:20.457Z,-4.38
2023-03-12T04:14:49.020Z,-4.36
2023-03-12T04:17:17.101Z,-4.34
2023-03-12T04:19:46.899Z,-4.32
2023-03-12T04:22:14.996Z,-4.28
2023-03-12T04:24:43.587Z,-4.28
2023-03-12T04:27:11.859Z,-4.28
2023-03-12T04:30:02.806Z,-4.29
2023-03-12T04:32:30.902Z,-4.28
2023-03-12T04:35:00.466Z,-4.28
2023-03-12T04:37:28.731Z,-4.31
2023-03-12T04:39:56.835Z,-4.32
2023-03-12T04:42:24.914Z,-4.32
2023-03-12T04:45:02.407Z,-4.34
2023-03-12T04:47:32.368Z,-4.36
2023-03-12T04:50:05.195Z,-4.38
2023-03-12T04:52:33.495Z,-4.39
2023-03-12T04:55:01.643Z,-4.40
2023-03-12T04:57:29.874Z,-4.41
2023-03-12T04:59:58.150Z,-4.43
2023-03-12T05:02:26.390Z,-4.48
2023-03-12T05:04:57.303Z,-4.51
2023-03-12T05:07:26.835Z,-4.54
2023-03-12T05:09:58.339Z,-4.55
2023-03-12T05:12:26.508Z,-4.58
2023-03-12T05:14:54.595Z,-4.63
2023-03-12T05:17:23.277Z,-4.64
2023-03-12T05:19:51.363Z,-4.65
2023-03-12T05:22:20.142Z,-4.67
2023-03-12T05:24:52.428Z,-4.67
2023-03-12T05:27:21.484Z,-4.66
2023-03-12T05:29:49.719Z,-4.66
2023-03-12T05:32:17.944Z,-4.68
2023-03-12T05:34:46.128Z,-4.67
2023-03-12T05:37:38.006Z,-4.69
2023-03-12T05:40:10.579Z,-4.69
2023-03-12T05:42:39.026Z,-4.69
2023-03-12T05:45:25.428Z,-4.70
2023-03-12T05:47:53.600Z,-4.71
2023-03-12T05:50:21.930Z,-4.69
2023-03-12T05:52:50.455Z,-4.68
2023-03-12T05:55:20.184Z,-4.65
2023-03-12T05:57:48.439Z,-4.61
2023-03-12T06:00:17.841Z,-4.58
2023-03-12T06:02:45.959Z,-4.53
2023-03-12T06:05:14.490Z,-4.46
2023-03-12T06:07:42.627Z,-4.38
2023-03-12T06:10:13.861Z,-4.29
2023-03-12T06:12:51.513Z,-4.19
2023-03-12T06:15:19.918Z,-4.10
2023-03-12T06:17:48.392Z,-4.01
2023-03-12T06:20:16.934Z,-3.96
2023-03-12T06:22:45.025Z,-3.88
2023-03-12T06:25:13.184Z,-3.81
2023-03-12T06:27:41.864Z,-3.74
2023-03-12T06:30:12.900Z,-3.66
2023-03-12T06:32:47.811Z,-3.59
2023-03-12T06:35:16.401Z,-3.51
2023-03-12T06:37:44.567Z,-3.42
2023-03-12T06:40:15.675Z,-3.34
2023-03-12T06:42:43.962Z,-3.24
2023-03-12T06:45:13.812Z,-3.15
2023-03-12T06:47:47.879Z,-3.05
2023-03-12T06:50:16.106Z,-2.94
2023-03-12T06:52:47.967Z,-2.85
2023-03-12T06:55:17.925Z,-2.77
2023-03-12T06:57:46.063Z,-2.70
2023-03-12T07:00:16.372Z,-2.63
2023-03-12T07:02:44.514Z,-2.58
2023-03-12T07:05:12.738Z,-2.51
2023-03-12T07:07:43.568Z,-2.46
2023-03-12T07:10:13.356Z,-2.40
2023-03-12T07:12:43.144Z,-2.38
2023-03-12T07:15:11.955Z,-2.33
2023-03-12T07:17:44.313Z,-2.29
2023-03-12T07:20:16.491Z,-2.23
2023-03-12T07:22:47.782Z,-2.19
2023-03-12T07:25:18.560Z,-2.13
2023-03-12T07:27:47.103Z,-2.08
2023-03-12T07:30:15.535Z,-2.02
2023-03-12T07:32:45.063Z,-1.93
2023-03-12T07:35:13.263Z,-1.90
2023-03-12T07:37:41.703Z,-1.83
2023-03-12T07:40:11.344Z,-1.77
2023-03-12T07:42:39.574Z,-1.69
2023-03-12T07:45:09.473Z,-1.62
2023-03-12T07:47:42.353Z,-1.59
2023-03-12T07:50:14.345Z,-1.51
2023-03-12T07:52:42.833Z,-1.48
2023-03-12T07:55:12.528Z,-1.41
2023-03-12T07:57:41.004Z,-1.37
2023-03-12T08:00:10.930Z,-1.35
2023-03-12T08:02:40.156Z,-1.32
2023-03-12T08:05:09.332Z,-1.27
2023-03-12T08:07:38.950Z,-1.26
2023-03-12T08:10:09.922Z,-1.19
2023-03-12T08:12:40.937Z,-1.11
2023-03-12T08:15:10.172Z,-1.03
2023-03-12T08:17:38.292Z,-0.98
2023-03-12T08:20:09.990Z,-0.97
2023-03-12T08:22:40.256Z,-0.88
2023-03-12T08:25:09.504Z,-0.83
2023-03-12T08:27:38.110Z,-0.77
2023-03-12T08:30:07.606Z,-0.70
2023-03-12T08:32:36.018Z,-0.68
2023-03-12T08:35:05.974Z,-0.62
2023-03-12T08:37:34.562Z,-0.57
2023-03-12T08:40:09.213Z,-0.53
2023-03-12T08:42:37.390Z,-0.56
2023-03-12T08:45:06.434Z,-0.60
2023-03-12T08:47:34.742Z,-0.55
2023-03-12T08:50:03.032Z,-0.51
2023-03-12T08:52:33.651Z,-0.49
2023-03-12T08:55:03.165Z,-0.44
2023-03-12T08:57:31.263Z,-0.37
2023-03-12T08:59:59.613Z,-0.40
2023-03-12T09:02:30.683Z,-0.41
2023-03-12T09:04:58.758Z,-0.39
2023-03-12T09:07:35.431Z,-0.36
2023-03-12T09:10:05.993Z,-0.32
2023-03-12T09:12:35.590Z,-0.22
2023-03-12T09:15:05.103Z,-0.15
2023-03-12T09:17:33.554Z,-0.16
2023-03-12T09:20:01.914Z,-0.10
2023-03-12T09:22:33.250Z,-0.05
2023-03-12T09:25:01.360Z,-0.01
2023-03-12T09:27:31.185Z,0.04
2023-03-12T09:30:01.165Z,0.09
2023-03-12T09:32:29.845Z,0.13
2023-03-12T09:34:58.100Z,0.19
2023-03-12T09:37:26.337Z,0.21
2023-03-12T09:39:55.197Z,0.29
2023-03-12T09:42:26.921Z,0.28
2023-03-12T09:45:04.933Z,0.25
2023-03-12T09:47:40.655Z,0.20
2023-03-12T09:50:21.611Z,0.20
2023-03-12T09:52:58.166Z,0.20
2023-03-12T09:55:29.000Z,0.20
2023-03-12T09:57:59.453Z,0.15
2023-03-12T10:00:34.494Z,0.13
2023-03-12T10:03:35.809Z,0.20
2023-03-12T10:06:12.527Z,0.26
2023-03-12T10:09:08.787Z,0.23
2023-03-12T10:11:51.083Z,0.19
2023-03-12T10:14:30.609Z,0.21
2023-03-12T10:17:26.808Z,0.27
2023-03-12T10:20:08.043Z,0.26
2023-03-12T10:22:51.068Z,0.34
2023-03-12T10:25:28.479Z,0.42
2023-03-12T10:28:12.941Z,0.50
2023-03-12T10:30:44.056Z,0.52
2023-03-12T10:33:18.390Z,0.64
2023-03-12T10:35:46.892Z,0.69
2023-03-12T10:38:21.796Z,0.73
2023-03-12T10:40:52.725Z,0.70
2023-03-12T10:43:20.932Z,0.65
2023-03-12T10:46:00.288Z,0.64
2023-03-12T10:48:35.777Z,0.57
2023-03-12T10:51:05.986Z,0.57
2023-03-12T10:53:35.711Z,0.61
2023-03-12T10:56:07.009Z,0.56
2023-03-12T10:58:38.311Z,0.57
2023-03-12T11:01:08.563Z,0.63
2023-03-12T11:03:39.355Z,0.57
2023-03-12T11:06:09.140Z,0.62
2023-03-12T11:08:38.713Z,0.75
2023-03-12T11:11:08.751Z,0.90
2023-03-12T11:13:40.765Z,0.92
2023-03-12T11:16:34.281Z,0.86
2023-03-12T11:19:07.620Z,0.89
2023-03-12T11:21:38.374Z,0.90
2023-03-12T11:24:10.073Z,0.89
2023-03-12T11:26:52.420Z,0.92
2023-03-12T11:29:31.526Z,0.84
2023-03-12T11:32:05.927Z,0.82
2023-03-12T11:34:39.438Z,0.78
2023-03-12T11:37:14.057Z,0.78
2023-03-12T11:39:57.682Z,0.83
2023-03-12T11:42:39.609Z,0.85
2023-03-12T11:45:20.135Z,0.91
2023-03-12T11:48:05.139Z,0.93
2023-03-12T11:50:48.003Z,0.88
2023-03-12T11:53:32.598Z,0.84
2023-03-12T11:59:24.389Z,0.92
2023-03-12T12:02:05.817Z,0.91
2023-03-12T12:05:14.000Z,0.85
2023-03-12T12:07:56.012Z,0.79
2023-03-12T12:10:32.741Z,0.82
2023-03-12T12:13:09.483Z,0.84
2023-03-12T12:15:43.727Z,0.85
2023-03-12T12:18:40.468Z,0.87
2023-03-12T12:21:24.744Z,0.89
2023-03-12T12:24:03.565Z,0.89
2023-03-12T12:26:47.550Z,0.94
2023-03-12T12:29:31.123Z,1.02
2023-03-12T12:32:00.428Z,1.07
2023-03-12T12:34:54.594Z,1.11
2023-03-12T12:37:32.867Z,1.15
2023-03-12T12:40:13.829Z,1.18
2023-03-12T12:42:52.354Z,1.12
2023-03-12T12:45:22.512Z,1.12
2023-03-12T12:47:55.099Z,1.06
2023-03-12T12:50:28.253Z,1.02
2023-03-12T12:53:00.866Z,1.00
2023-03-12T12:55:47.171Z,0.96
2023-03-12T12:58:23.704Z,0.97
2023-03-12T13:00:54.686Z,0.96
2023-03-12T13:03:25.847Z,0.90
2023-03-12T13:06:00.335Z,0.84
2023-03-12T13:09:02.997Z,0.93
2023-03-12T13:11:41.981Z,0.92
2023-03-12T13:14:37.095Z,0.96
2023-03-12T13:17:25.786Z,0.96
2023-03-12T13:20:01.701Z,1.03
2023-03-12T13:22:46.866Z,1.00
2023-03-12T13:25:28.166Z,0.98
2023-03-12T13:28:32.354Z,0.94
2023-03-12T13:31:00.704Z,0.98
2023-03-12T13:33:42.221Z,0.96
2023-03-12T13:36:23.795Z,0.91
2023-03-12T13:38:59.357Z,0.89
2023-03-12T13:41:37.395Z,0.93
2023-03-12T13:44:38.604Z,0.89
2023-03-12T13:47:22.398Z,0.85
2023-03-12T13:49:57.052Z,0.85
2023-03-12T13:52:27.551Z,0.82
2023-03-12T13:55:03.034Z,0.76
2023-03-12T13:57:40.253Z,0.76
2023-03-12T14:00:19.416Z,0.79
2023-03-12T14:02:54.020Z,0.83
2023-03-12T14:05:23.802Z,0.82
2023-03-12T14:08:16.340Z,0.85
2023-03-12T14:11:03.636Z,0.82
2023-03-12T14:13:49.050Z,0.79
2023-03-12T14:16:27.285Z,0.77
2023-03-12T14:18:55.839Z,0.77
2023-03-12T14:21:25.926Z,0.76
2023-03-12T14:23:58.651Z,0.74
2023-03-12T14:26:29.933Z,0.73
2023-03-12T14:29:01.900Z,0.71
2023-03-12T14:31:32.670Z,0.68
2023-03-12T14:34:05.336Z,0.68
2023-03-12T14:36:40.187Z,0.67
2023-03-12T14:39:23.842Z,0.64
2023-03-12T14:41:57.018Z,0.63
2023-03-12T14:44:27.175Z,0.64
2023-03-12T14:47:01.634Z,0.76
2023-03-12T14:49:31.292Z,0.84
2023-03-12T14:51:59.634Z,0.84
2023-03-12T14:54:29.606Z,0.82
2023-03-12T14:56:58.301Z,0.81
2023-03-12T14:59:31.138Z,0.76
2023-03-12T15:02:05.554Z,0.68
2023-03-12T15:04:35.944Z,0.65
2023-03-12T15:07:07.428Z,0.63
2023-03-12T15:09:37.898Z,0.62
2023-03-12T15:12:09.918Z,0.56
2023-03-12T15:14:42.839Z,0.52
2023-03-12T15:17:17.980Z,0.53
2023-03-12T15:19:47.479Z,0.53
2023-03-12T15:22:18.978Z,0.56
2023-03-12T15:24:47.068Z,0.64
2023-03-12T15:27:23.690Z,0.61
2023-03-12T15:29:52.281Z,0.63
2023-03-12T15:32:25.002Z,0.65
2023-03-12T15:34:54.759Z,0.67
2023-03-12T15:37:29.730Z,0.68
2023-03-12T15:39:59.024Z,0.63
2023-03-12T15:42:30.007Z,0.62
2023-03-12T15:45:04.084Z,0.58
2023-03-12T15:47:40.796Z,0.62
2023-03-12T15:50:14.279Z,0.57
2023-03-12T15:52:58.963Z,0.51
2023-03-12T15:55:30.704Z,0.41
2023-03-12T15:58:00.111Z,0.37
2023-03-12T16:00:30.526Z,0.42
2023-03-12T16:03:01.205Z,0.47
2023-03-12T16:05:32.565Z,0.61
2023-03-12T16:08:14.377Z,0.71
2023-03-12T16:10:43.919Z,0.81
2023-03-12T16:13:15.949Z,0.89
2023-03-12T16:15:46.229Z,0.90
2023-03-12T16:18:20.009Z,0.95
2023-03-12T16:20:49.215Z,1.08
2023-03-12T16:23:17.679Z,1.16
2023-03-12T16:25:48.586Z,1.23
2023-03-12T16:28:20.777Z,1.23
2023-03-12T16:30:48.981Z,1.21
2023-03-12T16:33:20.572Z,1.22
2023-03-12T16:35:49.192Z,1.25
2023-03-12T16:38:17.684Z,1.33
2023-03-12T16:40:48.641Z,1.47
2023-03-12T16:43:20.815Z,1.61
2023-03-12T16:45:50.440Z,1.69
2023-03-12T16:48:23.266Z,1.82
2023-03-12T16:50:53.145Z,1.92
2023-03-12T16:53:21.920Z,1.99
2023-03-12T16:55:52.403Z,2.11
2023-03-12T16:58:22.551Z,2.26
2023-03-12T17:00:52.298Z,2.32
2023-03-12T17:03:28.635Z,2.28
2023-03-12T17:05:56.805Z,2.21
2023-03-12T17:08:25.334Z,2.15
2023-03-12T17:10:53.827Z,2.05
2023-03-12T17:13:24.407Z,2.01
2023-03-12T17:15:53.637Z,1.97
2023-03-12T17:18:24.032Z,2.01
2023-03-12T17:20:52.375Z,1.90
2023-03-12T17:23:20.849Z,1.83
2023-03-12T17:25:49.534Z,1.84
2023-03-12T17:28:17.712Z,1.83
2023-03-12T17:30:47.464Z,1.88
2023-03-12T17:33:18.249Z,1.87
2023-03-12T17:35:56.792Z,1.95
2023-03-12T17:38:25.580Z,2.07
2023-03-12T17:40:54.191Z,2.22
2023-03-12T17:43:22.460Z,2.38
2023-03-12T17:45:51.240Z,2.52
2023-03-12T17:48:20.067Z,2.67
2023-03-12T17:50:50.114Z,2.73
2023-03-12T17:53:18.234Z,2.81
2023-03-12T17:55:47.352Z,2.90
2023-03-12T17:58:15.458Z,2.90
2023-03-12T18:00:43.729Z,2.95
2023-03-12T18:03:11.954Z,2.99
2023-03-12T18:05:43.042Z,3.06
2023-03-12T18:08:12.797Z,3.13
2023-03-12T18:10:41.088Z,3.23
2023-03-12T18:13:09.258Z,3.29
2023-03-12T18:15:37.582Z,3.29
2023-03-12T18:18:06.192Z,3.35
2023-03-12T18:20:39.108Z,3.42
2023-03-12T18:23:12.354Z,3.40
2023-03-12T18:25:40.597Z,3.45
2023-03-12T18:28:09.111Z,3.50
2023-03-12T18:30:37.352Z,3.51
2023-03-12T18:33:08.403Z,3.55
2023-03-12T18:38:20.665Z,3.64
2023-03-12T18:40:50.011Z,3.64
2023-03-12T18:43:20.757Z,3.63
2023-03-12T18:45:51.381Z,3.56
2023-03-12T18:48:19.567Z,3.48
2023-03-12T18:50:48.097Z,3.40
2023-03-12T18:53:16.612Z,3.37
2023-03-12T18:55:53.927Z,3.30
2023-03-12T18:58:22.870Z,3.24
2023-03-12T19:00:52.725Z,3.18
2023-03-12T19:03:21.596Z,3.09
2023-03-12T19:05:50.401Z,2.76
2023-03-12T19:08:24.206Z,2.32
2023-03-12T19:10:54.432Z,1.87
2023-03-12T19:13:23.147Z,1.46
2023-03-12T19:15:51.434Z,1.11
2023-03-12T19:18:20.054Z,0.79
2023-03-12T19:20:48.939Z,0.50
2023-03-12T19:23:21.967Z,0.23
2023-03-12T19:25:50.305Z,-0.01
2023-03-12T19:28:20.360Z,-0.21
2023-03-12T19:30:48.974Z,-0.45
2023-03-12T19:33:17.274Z,-0.59
2023-03-12T19:35:45.644Z,-0.73
2023-03-12T19:38:19.415Z,-0.83
2023-03-12T19:40:50.451Z,-0.92
2023-03-12T19:43:38.516Z,-0.99
2023-03-12T19:46:07.120Z,-1.05
2023-03-12T19:48:35.396Z,-1.10
2023-03-12T19:51:10.450Z,-1.11
2023-03-12T19:53:40.315Z,-1.14
2023-03-12T19:56:09.309Z,-1.14
2023-03-12T19:58:38.907Z,-1.17
2023-03-12T20:01:06.990Z,-1.18
2023-03-12T20:03:43.126Z,-1.19
2023-03-12T20:06:13.090Z,-1.19
2023-03-12T20:08:41.197Z,-1.22
2023-03-12T20:11:10.961Z,-1.20
2023-03-12T20:13:40.616Z,-1.21
2023-03-12T20:16:11.694Z,-1.22
2023-03-12T20:18:39.803Z,-1.24
2023-03-12T20:21:11.378Z,-1.26
2023-03-12T20:23:39.669Z,-1.25
2023-03-12T20:26:08.449Z,-1.24
2023-03-12T20:28:37.154Z,-1.23
2023-03-12T20:31:10.985Z,-1.22
2023-03-12T20:33:39.484Z,-1.22
2023-03-12T20:36:08.766Z,-1.20
2023-03-12T20:38:37.000Z,-1.19
2023-03-12T20:41:06.019Z,-1.20
2023-03-12T20:43:34.224Z,-1.21
2023-03-12T20:46:02.540Z,-1.19
2023-03-12T20:48:32.467Z,-1.21
2023-03-12T20:51:00.745Z,-1.21
2023-03-12T20:53:29.432Z,-1.22
2023-03-12T20:55:58.690Z,-1.24
2023-03-12T20:58:26.799Z,-1.24
2023-03-12T21:00:54.909Z,-1.25
2023-03-12T21:03:24.808Z,-1.24
2023-03-12T21:05:58.929Z,-1.24
2023-03-12T21:08:30.060Z,-1.25
2023-03-12T21:10:58.162Z,-1.25
2023-03-12T21:13:26.996Z,-1.27
2023-03-12T21:15:55.119Z,-1.28
2023-03-12T21:18:24.053Z,-1.31
2023-03-12T21:20:52.593Z,-1.38
2023-03-12T21:23:25.151Z,-1.42
2023-03-12T21:25:59.598Z,-1.47
2023-03-12T21:28:29.247Z,-1.47
2023-03-12T21:30:57.844Z,-1.51
2023-03-12T21:33:26.271Z,-1.50
2023-03-12T21:35:54.917Z,-1.51
2023-03-12T21:38:24.513Z,-1.49
2023-03-12T21:40:54.276Z,-1.49
2023-03-12T21:43:24.504Z,-1.50
2023-03-12T21:45:52.766Z,-1.53
2023-03-12T21:48:21.412Z,-1.55
2023-03-12T21:50:49.550Z,-1.59
2023-03-12T21:53:23.820Z,-1.65
2023-03-12T21:55:58.188Z,-1.66
2023-03-12T21:58:26.883Z,-1.70
2023-03-12T22:01:04.859Z,-1.71
2023-03-12T22:03:36.611Z,-1.84
2023-03-12T22:06:05.260Z,-1.83
2023-03-12T22:08:36.464Z,-1.82
2023-03-12T22:11:07.664Z,-1.83
2023-03-12T22:13:38.809Z,-1.83
2023-03-12T22:16:09.179Z,-1.82
2023-03-12T22:18:39.904Z,-1.83
2023-03-12T22:21:08.717Z,-1.85
2023-03-12T22:23:37.959Z,-1.86
2023-03-12T22:26:08.405Z,-1.89
2023-03-12T22:28:36.897Z,-1.90
2023-03-12T22:31:07.369Z,-1.91
2023-03-12T22:33:36.833Z,-1.92
2023-03-12T22:36:08.528Z,-1.92
2023-03-12T22:38:38.170Z,-1.95
2023-03-12T22:41:16.676Z,-1.98
2023-03-12T22:43:45.722Z,-2.02
2023-03-12T22:46:16.159Z,-2.06
2023-03-12T22:48:44.472Z,-2.08
2023-03-12T22:51:13.401Z,-2.11
2023-03-12T22:53:41.668Z,-2.12
2023-03-12T22:56:11.898Z,-2.13
2023-03-12T22:58:42.455Z,-2.15
2023-03-12T23:01:12.552Z,-2.15
2023-03-12T23:03:42.516Z,-2.17
2023-03-12T23:06:11.899Z,-2.16
2023-03-12T23:08:40.379Z,-2.16
2023-03-12T23:11:09.658Z,-2.17
2023-03-12T23:13:40.401Z,-2.16
2023-03-12T23:16:12.955Z,-2.16
2023-03-12T23:18:43.064Z,-2.16
2023-03-12T23:21:12.987Z,-2.18
2023-03-12T23:23:42.215Z,-2.17
2023-03-12T23:26:18.869Z,-2.16
2023-03-12T23:28:47.647Z,-2.12
2023-03-12T23:31:21.339Z,-2.10
2023-03-12T23:33:49.650Z,-2.10
2023-03-12T23:36:20.356Z,-2.13
2023-03-12T23:38:49.188Z,-2.15
2023-03-12T23:41:19.792Z,-2.12
2023-03-12T23:43:48.203Z,-2.13
2023-03-12T23:46:18.017Z,-2.14
2023-03-12T23:48:47.828Z,-2.16
2023-03-12T23:51:18.031Z,-2.17
2023-03-12T23:53:48.190Z,-2.13
2023-03-12T23:56:21.779Z,-2.10
2023-03-12T23:58:51.096Z,-2.08
